<?xml version="1.0" encoding="UTF-8" standalone="no" ?>
<gpx xmlns="http://www.topografix.com/GPX/1/1" xmlns:xsi="http://www.w3.org/2001/XMLSchema-instance" xsi:schemaLocation="http://www.topografix.com/GPX/1/1 http://www.topografix.com/GPX/1/1/gpx.xsd" version="1.1" creator="VisuGPX - https://www.visugpx.com">
  <metadata>
    <name>Course à pied le matin</name>
  </metadata>
  <trk>
    <name><![CDATA[Course à pied le matin_1]]></name>
    <trkseg>
      <trkpt lat="45.69543" lon="-1.16927">
        <ele>6.4</ele>
        <time>2023-10-29T05:00:43Z</time>
      </trkpt>
      <trkpt lat="45.69541" lon="-1.16896">
        <ele>6.3</ele>
        <time>2023-10-29T05:00:55Z</time>
      </trkpt>
      <trkpt lat="45.69539" lon="-1.16863">
        <ele>6.3</ele>
        <time>2023-10-29T05:01:00Z</time>
      </trkpt>
      <trkpt lat="45.69537" lon="-1.16832">
        <ele>6.2</ele>
        <time>2023-10-29T05:01:04Z</time>
      </trkpt>
      <trkpt lat="45.69533" lon="-1.16802">
        <ele>6.2</ele>
        <time>2023-10-29T05:01:08Z</time>
      </trkpt>
      <trkpt lat="45.69527" lon="-1.16776">
        <ele>6.1</ele>
        <time>2023-10-29T05:01:12Z</time>
      </trkpt>
      <trkpt lat="45.69526" lon="-1.16769">
        <ele>6.1</ele>
        <time>2023-10-29T05:01:13Z</time>
      </trkpt>
      <trkpt lat="45.69521" lon="-1.16741">
        <ele>6.1</ele>
        <time>2023-10-29T05:01:18Z</time>
      </trkpt>
      <trkpt lat="45.6952" lon="-1.16713">
        <ele>6</ele>
        <time>2023-10-29T05:01:23Z</time>
      </trkpt>
      <trkpt lat="45.6952" lon="-1.16685">
        <ele>6</ele>
        <time>2023-10-29T05:01:28Z</time>
      </trkpt>
      <trkpt lat="45.6952" lon="-1.16679">
        <ele>6</ele>
        <time>2023-10-29T05:01:29Z</time>
      </trkpt>
      <trkpt lat="45.69523" lon="-1.16651">
        <ele>5.9</ele>
        <time>2023-10-29T05:01:34Z</time>
      </trkpt>
      <trkpt lat="45.69526" lon="-1.16633">
        <ele>5.9</ele>
        <time>2023-10-29T05:01:37Z</time>
      </trkpt>
      <trkpt lat="45.69526" lon="-1.16611">
        <ele>5.9</ele>
        <time>2023-10-29T05:01:41Z</time>
      </trkpt>
      <trkpt lat="45.69521" lon="-1.16603">
        <ele>6.4</ele>
        <time>2023-10-29T05:01:43Z</time>
      </trkpt>
      <trkpt lat="45.69514" lon="-1.166">
        <ele>6.8</ele>
        <time>2023-10-29T05:01:45Z</time>
      </trkpt>
      <trkpt lat="45.695" lon="-1.16596">
        <ele>7.5</ele>
        <time>2023-10-29T05:01:49Z</time>
      </trkpt>
      <trkpt lat="45.69495" lon="-1.16591">
        <ele>7.8</ele>
        <time>2023-10-29T05:01:51Z</time>
      </trkpt>
      <trkpt lat="45.69488" lon="-1.16587">
        <ele>8.2</ele>
        <time>2023-10-29T05:01:53Z</time>
      </trkpt>
      <trkpt lat="45.69479" lon="-1.16582">
        <ele>8.7</ele>
        <time>2023-10-29T05:01:56Z</time>
      </trkpt>
      <trkpt lat="45.69474" lon="-1.16577">
        <ele>9</ele>
        <time>2023-10-29T05:01:58Z</time>
      </trkpt>
      <trkpt lat="45.69471" lon="-1.16572">
        <ele>9.2</ele>
        <time>2023-10-29T05:02:00Z</time>
      </trkpt>
      <trkpt lat="45.69459" lon="-1.1655">
        <ele>9.3</ele>
        <time>2023-10-29T05:02:06Z</time>
      </trkpt>
      <trkpt lat="45.69452" lon="-1.16526">
        <ele>9.3</ele>
        <time>2023-10-29T05:02:11Z</time>
      </trkpt>
      <trkpt lat="45.69444" lon="-1.16496">
        <ele>9.4</ele>
        <time>2023-10-29T05:02:17Z</time>
      </trkpt>
      <trkpt lat="45.69437" lon="-1.1647">
        <ele>9.4</ele>
        <time>2023-10-29T05:02:21Z</time>
      </trkpt>
      <trkpt lat="45.69436" lon="-1.16465">
        <ele>9.4</ele>
        <time>2023-10-29T05:02:22Z</time>
      </trkpt>
      <trkpt lat="45.69432" lon="-1.16437">
        <ele>9.5</ele>
        <time>2023-10-29T05:02:27Z</time>
      </trkpt>
      <trkpt lat="45.69428" lon="-1.16409">
        <ele>9.5</ele>
        <time>2023-10-29T05:02:32Z</time>
      </trkpt>
      <trkpt lat="45.69425" lon="-1.16398">
        <ele>9.5</ele>
        <time>2023-10-29T05:02:34Z</time>
      </trkpt>
      <trkpt lat="45.69422" lon="-1.16374">
        <ele>9.6</ele>
        <time>2023-10-29T05:02:39Z</time>
      </trkpt>
      <trkpt lat="45.69421" lon="-1.16346">
        <ele>9.6</ele>
        <time>2023-10-29T05:02:45Z</time>
      </trkpt>
      <trkpt lat="45.69418" lon="-1.16317">
        <ele>9.6</ele>
        <time>2023-10-29T05:02:50Z</time>
      </trkpt>
      <trkpt lat="45.69414" lon="-1.16288">
        <ele>9.7</ele>
        <time>2023-10-29T05:02:55Z</time>
      </trkpt>
      <trkpt lat="45.69411" lon="-1.16258">
        <ele>9.4</ele>
        <time>2023-10-29T05:03:00Z</time>
      </trkpt>
      <trkpt lat="45.69407" lon="-1.16229">
        <ele>9</ele>
        <time>2023-10-29T05:03:05Z</time>
      </trkpt>
      <trkpt lat="45.69405" lon="-1.162">
        <ele>8.9</ele>
        <time>2023-10-29T05:03:10Z</time>
      </trkpt>
      <trkpt lat="45.694" lon="-1.16175">
        <ele>9</ele>
        <time>2023-10-29T05:03:14Z</time>
      </trkpt>
      <trkpt lat="45.69395" lon="-1.16148">
        <ele>9.1</ele>
        <time>2023-10-29T05:03:18Z</time>
      </trkpt>
      <trkpt lat="45.69388" lon="-1.1612">
        <ele>9.2</ele>
        <time>2023-10-29T05:03:23Z</time>
      </trkpt>
      <trkpt lat="45.69381" lon="-1.16096">
        <ele>9.2</ele>
        <time>2023-10-29T05:03:28Z</time>
      </trkpt>
      <trkpt lat="45.69378" lon="-1.1607">
        <ele>9.1</ele>
        <time>2023-10-29T05:03:33Z</time>
      </trkpt>
      <trkpt lat="45.6938" lon="-1.16044">
        <ele>9.2</ele>
        <time>2023-10-29T05:03:38Z</time>
      </trkpt>
      <trkpt lat="45.69382" lon="-1.16019">
        <ele>9.4</ele>
        <time>2023-10-29T05:03:43Z</time>
      </trkpt>
      <trkpt lat="45.69384" lon="-1.15988">
        <ele>9.7</ele>
        <time>2023-10-29T05:03:49Z</time>
      </trkpt>
      <trkpt lat="45.69386" lon="-1.15959">
        <ele>9.7</ele>
        <time>2023-10-29T05:03:55Z</time>
      </trkpt>
      <trkpt lat="45.69391" lon="-1.15932">
        <ele>9.8</ele>
        <time>2023-10-29T05:04:00Z</time>
      </trkpt>
      <trkpt lat="45.69392" lon="-1.15906">
        <ele>9.8</ele>
        <time>2023-10-29T05:04:04Z</time>
      </trkpt>
      <trkpt lat="45.69393" lon="-1.15876">
        <ele>9.9</ele>
        <time>2023-10-29T05:04:09Z</time>
      </trkpt>
      <trkpt lat="45.69407" lon="-1.1586">
        <ele>9.8</ele>
        <time>2023-10-29T05:04:16Z</time>
      </trkpt>
      <trkpt lat="45.69426" lon="-1.15853">
        <ele>10</ele>
        <time>2023-10-29T05:04:23Z</time>
      </trkpt>
      <trkpt lat="45.69443" lon="-1.15843">
        <ele>10.1</ele>
        <time>2023-10-29T05:04:30Z</time>
      </trkpt>
      <trkpt lat="45.69465" lon="-1.15836">
        <ele>10.3</ele>
        <time>2023-10-29T05:04:37Z</time>
      </trkpt>
      <trkpt lat="45.69483" lon="-1.15832">
        <ele>11</ele>
        <time>2023-10-29T05:04:42Z</time>
      </trkpt>
      <trkpt lat="45.69502" lon="-1.15826">
        <ele>11.6</ele>
        <time>2023-10-29T05:04:47Z</time>
      </trkpt>
      <trkpt lat="45.6952" lon="-1.15823">
        <ele>11.8</ele>
        <time>2023-10-29T05:04:52Z</time>
      </trkpt>
      <trkpt lat="45.69529" lon="-1.15815">
        <ele>11.8</ele>
        <time>2023-10-29T05:04:55Z</time>
      </trkpt>
      <trkpt lat="45.69535" lon="-1.1579">
        <ele>12.5</ele>
        <time>2023-10-29T05:05:03Z</time>
      </trkpt>
      <trkpt lat="45.69534" lon="-1.15781">
        <ele>12.7</ele>
        <time>2023-10-29T05:05:07Z</time>
      </trkpt>
      <trkpt lat="45.69535" lon="-1.1577">
        <ele>12.9</ele>
        <time>2023-10-29T05:05:10Z</time>
      </trkpt>
      <trkpt lat="45.6954" lon="-1.15743">
        <ele>13.9</ele>
        <time>2023-10-29T05:05:16Z</time>
      </trkpt>
      <trkpt lat="45.69538" lon="-1.15717">
        <ele>14.9</ele>
        <time>2023-10-29T05:05:26Z</time>
      </trkpt>
      <trkpt lat="45.69532" lon="-1.15691">
        <ele>15.4</ele>
        <time>2023-10-29T05:05:34Z</time>
      </trkpt>
      <trkpt lat="45.69523" lon="-1.15667">
        <ele>15.3</ele>
        <time>2023-10-29T05:05:42Z</time>
      </trkpt>
      <trkpt lat="45.69511" lon="-1.15643">
        <ele>14.7</ele>
        <time>2023-10-29T05:05:48Z</time>
      </trkpt>
      <trkpt lat="45.69509" lon="-1.15636">
        <ele>14.7</ele>
        <time>2023-10-29T05:05:49Z</time>
      </trkpt>
      <trkpt lat="45.69499" lon="-1.15613">
        <ele>14.2</ele>
        <time>2023-10-29T05:05:56Z</time>
      </trkpt>
      <trkpt lat="45.695" lon="-1.15604">
        <ele>14.3</ele>
        <time>2023-10-29T05:05:57Z</time>
      </trkpt>
      <trkpt lat="45.69505" lon="-1.15578">
        <ele>15</ele>
        <time>2023-10-29T05:06:05Z</time>
      </trkpt>
      <trkpt lat="45.69501" lon="-1.15551">
        <ele>15.3</ele>
        <time>2023-10-29T05:06:14Z</time>
      </trkpt>
      <trkpt lat="45.69492" lon="-1.15538">
        <ele>14.8</ele>
        <time>2023-10-29T05:06:21Z</time>
      </trkpt>
      <trkpt lat="45.69494" lon="-1.15512">
        <ele>15.4</ele>
        <time>2023-10-29T05:06:29Z</time>
      </trkpt>
      <trkpt lat="45.69489" lon="-1.15497">
        <ele>15.5</ele>
        <time>2023-10-29T05:06:36Z</time>
      </trkpt>
      <trkpt lat="45.69477" lon="-1.15488">
        <ele>15</ele>
        <time>2023-10-29T05:06:40Z</time>
      </trkpt>
      <trkpt lat="45.69467" lon="-1.15465">
        <ele>15</ele>
        <time>2023-10-29T05:06:49Z</time>
      </trkpt>
      <trkpt lat="45.69466" lon="-1.1544">
        <ele>15.5</ele>
        <time>2023-10-29T05:06:58Z</time>
      </trkpt>
      <trkpt lat="45.69467" lon="-1.15402">
        <ele>16.1</ele>
        <time>2023-10-29T05:07:09Z</time>
      </trkpt>
      <trkpt lat="45.6947" lon="-1.15391">
        <ele>16.2</ele>
        <time>2023-10-29T05:07:19Z</time>
      </trkpt>
      <trkpt lat="45.69472" lon="-1.1538">
        <ele>16.3</ele>
        <time>2023-10-29T05:07:23Z</time>
      </trkpt>
      <trkpt lat="45.69475" lon="-1.15368">
        <ele>16.3</ele>
        <time>2023-10-29T05:07:27Z</time>
      </trkpt>
      <trkpt lat="45.69478" lon="-1.15357">
        <ele>16.4</ele>
        <time>2023-10-29T05:07:39Z</time>
      </trkpt>
      <trkpt lat="45.69481" lon="-1.15346">
        <ele>16.5</ele>
        <time>2023-10-29T05:07:40Z</time>
      </trkpt>
      <trkpt lat="45.69497" lon="-1.15327">
        <ele>17.1</ele>
        <time>2023-10-29T05:07:47Z</time>
      </trkpt>
      <trkpt lat="45.69515" lon="-1.15313">
        <ele>17.9</ele>
        <time>2023-10-29T05:07:53Z</time>
      </trkpt>
      <trkpt lat="45.69532" lon="-1.15296">
        <ele>18.4</ele>
        <time>2023-10-29T05:07:59Z</time>
      </trkpt>
      <trkpt lat="45.6955" lon="-1.15284">
        <ele>18.9</ele>
        <time>2023-10-29T05:08:04Z</time>
      </trkpt>
      <trkpt lat="45.69567" lon="-1.15266">
        <ele>19.4</ele>
        <time>2023-10-29T05:08:10Z</time>
      </trkpt>
      <trkpt lat="45.69584" lon="-1.15248">
        <ele>19.7</ele>
        <time>2023-10-29T05:08:16Z</time>
      </trkpt>
      <trkpt lat="45.69597" lon="-1.15225">
        <ele>20</ele>
        <time>2023-10-29T05:08:21Z</time>
      </trkpt>
      <trkpt lat="45.69606" lon="-1.15201">
        <ele>20.2</ele>
        <time>2023-10-29T05:08:26Z</time>
      </trkpt>
      <trkpt lat="45.69613" lon="-1.15174">
        <ele>20.5</ele>
        <time>2023-10-29T05:08:33Z</time>
      </trkpt>
      <trkpt lat="45.69616" lon="-1.15169">
        <ele>20.6</ele>
        <time>2023-10-29T05:08:34Z</time>
      </trkpt>
      <trkpt lat="45.6962" lon="-1.15167">
        <ele>20.8</ele>
        <time>2023-10-29T05:08:38Z</time>
      </trkpt>
      <trkpt lat="45.69627" lon="-1.15168">
        <ele>21</ele>
        <time>2023-10-29T05:08:41Z</time>
      </trkpt>
      <trkpt lat="45.69634" lon="-1.15167">
        <ele>21.2</ele>
        <time>2023-10-29T05:08:44Z</time>
      </trkpt>
      <trkpt lat="45.6965" lon="-1.15164">
        <ele>21.6</ele>
        <time>2023-10-29T05:08:59Z</time>
      </trkpt>
      <trkpt lat="45.69651" lon="-1.15163">
        <ele>21.5</ele>
        <time>2023-10-29T05:09:01Z</time>
      </trkpt>
      <trkpt lat="45.69653" lon="-1.15161">
        <ele>21.5</ele>
        <time>2023-10-29T05:09:04Z</time>
      </trkpt>
      <trkpt lat="45.69667" lon="-1.15147">
        <ele>21.3</ele>
        <time>2023-10-29T05:09:17Z</time>
      </trkpt>
      <trkpt lat="45.69685" lon="-1.15159">
        <ele>20.6</ele>
        <time>2023-10-29T05:09:28Z</time>
      </trkpt>
      <trkpt lat="45.697" lon="-1.15161">
        <ele>19.9</ele>
        <time>2023-10-29T05:09:38Z</time>
      </trkpt>
      <trkpt lat="45.69712" lon="-1.15147">
        <ele>18.7</ele>
        <time>2023-10-29T05:09:48Z</time>
      </trkpt>
      <trkpt lat="45.69728" lon="-1.15134">
        <ele>17.5</ele>
        <time>2023-10-29T05:09:58Z</time>
      </trkpt>
      <trkpt lat="45.69733" lon="-1.15131">
        <ele>17.2</ele>
        <time>2023-10-29T05:10:00Z</time>
      </trkpt>
      <trkpt lat="45.69747" lon="-1.15114">
        <ele>16.3</ele>
        <time>2023-10-29T05:10:07Z</time>
      </trkpt>
      <trkpt lat="45.69763" lon="-1.151">
        <ele>15.6</ele>
        <time>2023-10-29T05:10:16Z</time>
      </trkpt>
      <trkpt lat="45.69779" lon="-1.1509">
        <ele>14.9</ele>
        <time>2023-10-29T05:10:24Z</time>
      </trkpt>
      <trkpt lat="45.69797" lon="-1.15089">
        <ele>14.7</ele>
        <time>2023-10-29T05:10:31Z</time>
      </trkpt>
      <trkpt lat="45.698" lon="-1.1509">
        <ele>14.6</ele>
        <time>2023-10-29T05:10:34Z</time>
      </trkpt>
      <trkpt lat="45.69813" lon="-1.15114">
        <ele>15</ele>
        <time>2023-10-29T05:10:42Z</time>
      </trkpt>
      <trkpt lat="45.69828" lon="-1.15134">
        <ele>15.1</ele>
        <time>2023-10-29T05:10:48Z</time>
      </trkpt>
      <trkpt lat="45.69838" lon="-1.15157">
        <ele>15.2</ele>
        <time>2023-10-29T05:10:53Z</time>
      </trkpt>
      <trkpt lat="45.69844" lon="-1.15184">
        <ele>15.2</ele>
        <time>2023-10-29T05:10:59Z</time>
      </trkpt>
      <trkpt lat="45.69855" lon="-1.15208">
        <ele>14.8</ele>
        <time>2023-10-29T05:11:05Z</time>
      </trkpt>
      <trkpt lat="45.6987" lon="-1.15224">
        <ele>14</ele>
        <time>2023-10-29T05:11:10Z</time>
      </trkpt>
      <trkpt lat="45.69887" lon="-1.15234">
        <ele>13</ele>
        <time>2023-10-29T05:11:15Z</time>
      </trkpt>
      <trkpt lat="45.69904" lon="-1.15241">
        <ele>12</ele>
        <time>2023-10-29T05:11:22Z</time>
      </trkpt>
      <trkpt lat="45.69907" lon="-1.1524">
        <ele>11.8</ele>
        <time>2023-10-29T05:11:23Z</time>
      </trkpt>
      <trkpt lat="45.69908" lon="-1.15239">
        <ele>11.6</ele>
        <time>2023-10-29T05:11:25Z</time>
      </trkpt>
      <trkpt lat="45.69909" lon="-1.15229">
        <ele>11.5</ele>
        <time>2023-10-29T05:11:30Z</time>
      </trkpt>
      <trkpt lat="45.69914" lon="-1.15212">
        <ele>11.1</ele>
        <time>2023-10-29T05:11:41Z</time>
      </trkpt>
      <trkpt lat="45.69918" lon="-1.1521">
        <ele>10.9</ele>
        <time>2023-10-29T05:11:44Z</time>
      </trkpt>
      <trkpt lat="45.6993" lon="-1.15209">
        <ele>10.6</ele>
        <time>2023-10-29T05:11:51Z</time>
      </trkpt>
      <trkpt lat="45.69938" lon="-1.15199">
        <ele>10.3</ele>
        <time>2023-10-29T05:11:56Z</time>
      </trkpt>
      <trkpt lat="45.69951" lon="-1.15192">
        <ele>10</ele>
        <time>2023-10-29T05:12:05Z</time>
      </trkpt>
      <trkpt lat="45.69961" lon="-1.15175">
        <ele>9.7</ele>
        <time>2023-10-29T05:12:19Z</time>
      </trkpt>
      <trkpt lat="45.69977" lon="-1.15158">
        <ele>9.4</ele>
        <time>2023-10-29T05:12:29Z</time>
      </trkpt>
      <trkpt lat="45.69982" lon="-1.15151">
        <ele>9.3</ele>
        <time>2023-10-29T05:12:34Z</time>
      </trkpt>
      <trkpt lat="45.69987" lon="-1.1514">
        <ele>9.3</ele>
        <time>2023-10-29T05:12:42Z</time>
      </trkpt>
      <trkpt lat="45.69986" lon="-1.15139">
        <ele>9.2</ele>
        <time>2023-10-29T05:12:44Z</time>
      </trkpt>
      <trkpt lat="45.69972" lon="-1.15121">
        <ele>9.5</ele>
        <time>2023-10-29T05:12:53Z</time>
      </trkpt>
      <trkpt lat="45.6997" lon="-1.151">
        <ele>9.7</ele>
        <time>2023-10-29T05:13:03Z</time>
      </trkpt>
      <trkpt lat="45.69972" lon="-1.15098">
        <ele>9.7</ele>
        <time>2023-10-29T05:13:05Z</time>
      </trkpt>
      <trkpt lat="45.69973" lon="-1.15072">
        <ele>9.9</ele>
        <time>2023-10-29T05:13:12Z</time>
      </trkpt>
      <trkpt lat="45.69972" lon="-1.15066">
        <ele>9.9</ele>
        <time>2023-10-29T05:13:13Z</time>
      </trkpt>
      <trkpt lat="45.69965" lon="-1.15051">
        <ele>10</ele>
        <time>2023-10-29T05:13:23Z</time>
      </trkpt>
      <trkpt lat="45.69963" lon="-1.15045">
        <ele>10</ele>
        <time>2023-10-29T05:13:28Z</time>
      </trkpt>
      <trkpt lat="45.69967" lon="-1.15041">
        <ele>9.9</ele>
        <time>2023-10-29T05:13:32Z</time>
      </trkpt>
      <trkpt lat="45.6997" lon="-1.15039">
        <ele>9.9</ele>
        <time>2023-10-29T05:13:33Z</time>
      </trkpt>
      <trkpt lat="45.69988" lon="-1.15036">
        <ele>9.7</ele>
        <time>2023-10-29T05:13:41Z</time>
      </trkpt>
      <trkpt lat="45.69994" lon="-1.15026">
        <ele>9.7</ele>
        <time>2023-10-29T05:13:48Z</time>
      </trkpt>
      <trkpt lat="45.70006" lon="-1.15007">
        <ele>9.7</ele>
        <time>2023-10-29T05:14:01Z</time>
      </trkpt>
      <trkpt lat="45.70007" lon="-1.14995">
        <ele>9.6</ele>
        <time>2023-10-29T05:14:09Z</time>
      </trkpt>
      <trkpt lat="45.70025" lon="-1.1499">
        <ele>9.6</ele>
        <time>2023-10-29T05:14:16Z</time>
      </trkpt>
      <trkpt lat="45.70044" lon="-1.14985">
        <ele>9.5</ele>
        <time>2023-10-29T05:14:26Z</time>
      </trkpt>
      <trkpt lat="45.70049" lon="-1.14986">
        <ele>9.4</ele>
        <time>2023-10-29T05:14:27Z</time>
      </trkpt>
      <trkpt lat="45.70055" lon="-1.14991">
        <ele>9.5</ele>
        <time>2023-10-29T05:14:33Z</time>
      </trkpt>
      <trkpt lat="45.70063" lon="-1.15017">
        <ele>9.7</ele>
        <time>2023-10-29T05:14:44Z</time>
      </trkpt>
      <trkpt lat="45.70066" lon="-1.15046">
        <ele>9.8</ele>
        <time>2023-10-29T05:14:52Z</time>
      </trkpt>
      <trkpt lat="45.70057" lon="-1.15065">
        <ele>9.7</ele>
        <time>2023-10-29T05:15:03Z</time>
      </trkpt>
      <trkpt lat="45.7005" lon="-1.1508">
        <ele>9.6</ele>
        <time>2023-10-29T05:15:11Z</time>
      </trkpt>
      <trkpt lat="45.70063" lon="-1.15098">
        <ele>9.4</ele>
        <time>2023-10-29T05:15:16Z</time>
      </trkpt>
      <trkpt lat="45.70077" lon="-1.15119">
        <ele>9.2</ele>
        <time>2023-10-29T05:15:21Z</time>
      </trkpt>
      <trkpt lat="45.70088" lon="-1.15144">
        <ele>9</ele>
        <time>2023-10-29T05:15:25Z</time>
      </trkpt>
      <trkpt lat="45.70089" lon="-1.15152">
        <ele>9</ele>
        <time>2023-10-29T05:15:26Z</time>
      </trkpt>
      <trkpt lat="45.70095" lon="-1.15176">
        <ele>8.8</ele>
        <time>2023-10-29T05:15:30Z</time>
      </trkpt>
      <trkpt lat="45.70101" lon="-1.15201">
        <ele>8.5</ele>
        <time>2023-10-29T05:15:34Z</time>
      </trkpt>
      <trkpt lat="45.70106" lon="-1.15231">
        <ele>8.2</ele>
        <time>2023-10-29T05:15:39Z</time>
      </trkpt>
      <trkpt lat="45.7011" lon="-1.15258">
        <ele>8.1</ele>
        <time>2023-10-29T05:15:43Z</time>
      </trkpt>
      <trkpt lat="45.70114" lon="-1.15288">
        <ele>8.1</ele>
        <time>2023-10-29T05:15:48Z</time>
      </trkpt>
      <trkpt lat="45.70118" lon="-1.15318">
        <ele>8.2</ele>
        <time>2023-10-29T05:15:53Z</time>
      </trkpt>
      <trkpt lat="45.70122" lon="-1.15347">
        <ele>8.3</ele>
        <time>2023-10-29T05:15:58Z</time>
      </trkpt>
      <trkpt lat="45.70126" lon="-1.15379">
        <ele>8.4</ele>
        <time>2023-10-29T05:16:03Z</time>
      </trkpt>
      <trkpt lat="45.70131" lon="-1.15401">
        <ele>8.6</ele>
        <time>2023-10-29T05:16:07Z</time>
      </trkpt>
      <trkpt lat="45.70136" lon="-1.15429">
        <ele>8.7</ele>
        <time>2023-10-29T05:16:12Z</time>
      </trkpt>
      <trkpt lat="45.70135" lon="-1.1544">
        <ele>8.8</ele>
        <time>2023-10-29T05:16:14Z</time>
      </trkpt>
      <trkpt lat="45.70131" lon="-1.15448">
        <ele>8.8</ele>
        <time>2023-10-29T05:16:16Z</time>
      </trkpt>
      <trkpt lat="45.70118" lon="-1.15461">
        <ele>8.5</ele>
        <time>2023-10-29T05:16:20Z</time>
      </trkpt>
      <trkpt lat="45.70112" lon="-1.15472">
        <ele>8.6</ele>
        <time>2023-10-29T05:16:23Z</time>
      </trkpt>
      <trkpt lat="45.70105" lon="-1.15499">
        <ele>8.7</ele>
        <time>2023-10-29T05:16:29Z</time>
      </trkpt>
      <trkpt lat="45.70105" lon="-1.15525">
        <ele>8.7</ele>
        <time>2023-10-29T05:16:35Z</time>
      </trkpt>
      <trkpt lat="45.70091" lon="-1.15544">
        <ele>8.9</ele>
        <time>2023-10-29T05:16:43Z</time>
      </trkpt>
      <trkpt lat="45.70076" lon="-1.15564">
        <ele>9.1</ele>
        <time>2023-10-29T05:16:49Z</time>
      </trkpt>
      <trkpt lat="45.70073" lon="-1.15591">
        <ele>9.4</ele>
        <time>2023-10-29T05:16:55Z</time>
      </trkpt>
      <trkpt lat="45.70073" lon="-1.15607">
        <ele>9.6</ele>
        <time>2023-10-29T05:17:00Z</time>
      </trkpt>
      <trkpt lat="45.70076" lon="-1.15612">
        <ele>9.7</ele>
        <time>2023-10-29T05:17:03Z</time>
      </trkpt>
      <trkpt lat="45.70073" lon="-1.15637">
        <ele>10.1</ele>
        <time>2023-10-29T05:17:10Z</time>
      </trkpt>
      <trkpt lat="45.70085" lon="-1.15661">
        <ele>10.3</ele>
        <time>2023-10-29T05:17:16Z</time>
      </trkpt>
      <trkpt lat="45.70089" lon="-1.15686">
        <ele>10.5</ele>
        <time>2023-10-29T05:17:23Z</time>
      </trkpt>
      <trkpt lat="45.70077" lon="-1.15706">
        <ele>11</ele>
        <time>2023-10-29T05:17:31Z</time>
      </trkpt>
      <trkpt lat="45.70067" lon="-1.15708">
        <ele>11.4</ele>
        <time>2023-10-29T05:17:38Z</time>
      </trkpt>
      <trkpt lat="45.70066" lon="-1.15699">
        <ele>11.3</ele>
        <time>2023-10-29T05:17:44Z</time>
      </trkpt>
      <trkpt lat="45.70061" lon="-1.15725">
        <ele>11.9</ele>
        <time>2023-10-29T05:17:53Z</time>
      </trkpt>
      <trkpt lat="45.70051" lon="-1.1575">
        <ele>13</ele>
        <time>2023-10-29T05:18:00Z</time>
      </trkpt>
      <trkpt lat="45.70043" lon="-1.15765">
        <ele>13.7</ele>
        <time>2023-10-29T05:18:08Z</time>
      </trkpt>
      <trkpt lat="45.70029" lon="-1.15783">
        <ele>14.7</ele>
        <time>2023-10-29T05:18:21Z</time>
      </trkpt>
      <trkpt lat="45.70011" lon="-1.15793">
        <ele>15.7</ele>
        <time>2023-10-29T05:18:29Z</time>
      </trkpt>
      <trkpt lat="45.7" lon="-1.15819">
        <ele>16.5</ele>
        <time>2023-10-29T05:18:37Z</time>
      </trkpt>
      <trkpt lat="45.69994" lon="-1.15843">
        <ele>16.3</ele>
        <time>2023-10-29T05:18:42Z</time>
      </trkpt>
      <trkpt lat="45.6999" lon="-1.15869">
        <ele>15.6</ele>
        <time>2023-10-29T05:18:47Z</time>
      </trkpt>
      <trkpt lat="45.69986" lon="-1.15896">
        <ele>14.9</ele>
        <time>2023-10-29T05:18:54Z</time>
      </trkpt>
      <trkpt lat="45.6998" lon="-1.1592">
        <ele>14.6</ele>
        <time>2023-10-29T05:19:02Z</time>
      </trkpt>
      <trkpt lat="45.69965" lon="-1.15935">
        <ele>14.1</ele>
        <time>2023-10-29T05:19:10Z</time>
      </trkpt>
      <trkpt lat="45.69963" lon="-1.15938">
        <ele>14</ele>
        <time>2023-10-29T05:19:12Z</time>
      </trkpt>
      <trkpt lat="45.69953" lon="-1.15943">
        <ele>13.7</ele>
        <time>2023-10-29T05:19:17Z</time>
      </trkpt>
      <trkpt lat="45.6995" lon="-1.15948">
        <ele>13.6</ele>
        <time>2023-10-29T05:19:20Z</time>
      </trkpt>
      <trkpt lat="45.69932" lon="-1.15956">
        <ele>12.7</ele>
        <time>2023-10-29T05:19:27Z</time>
      </trkpt>
      <trkpt lat="45.69916" lon="-1.15968">
        <ele>11.8</ele>
        <time>2023-10-29T05:19:33Z</time>
      </trkpt>
      <trkpt lat="45.69899" lon="-1.15984">
        <ele>11.3</ele>
        <time>2023-10-29T05:19:39Z</time>
      </trkpt>
      <trkpt lat="45.6988" lon="-1.15999">
        <ele>11.5</ele>
        <time>2023-10-29T05:19:45Z</time>
      </trkpt>
      <trkpt lat="45.69862" lon="-1.1601">
        <ele>12.3</ele>
        <time>2023-10-29T05:19:52Z</time>
      </trkpt>
      <trkpt lat="45.69845" lon="-1.16006">
        <ele>13.2</ele>
        <time>2023-10-29T05:19:59Z</time>
      </trkpt>
      <trkpt lat="45.69836" lon="-1.16021">
        <ele>13.4</ele>
        <time>2023-10-29T05:20:05Z</time>
      </trkpt>
      <trkpt lat="45.69832" lon="-1.16049">
        <ele>13.1</ele>
        <time>2023-10-29T05:20:13Z</time>
      </trkpt>
      <trkpt lat="45.69828" lon="-1.1606">
        <ele>13.1</ele>
        <time>2023-10-29T05:20:17Z</time>
      </trkpt>
      <trkpt lat="45.69827" lon="-1.16086">
        <ele>12.6</ele>
        <time>2023-10-29T05:20:25Z</time>
      </trkpt>
      <trkpt lat="45.69815" lon="-1.16106">
        <ele>12.4</ele>
        <time>2023-10-29T05:20:35Z</time>
      </trkpt>
      <trkpt lat="45.69814" lon="-1.16109">
        <ele>12.4</ele>
        <time>2023-10-29T05:20:36Z</time>
      </trkpt>
      <trkpt lat="45.69806" lon="-1.1612">
        <ele>12.2</ele>
        <time>2023-10-29T05:20:43Z</time>
      </trkpt>
      <trkpt lat="45.69801" lon="-1.16119">
        <ele>12.3</ele>
        <time>2023-10-29T05:20:46Z</time>
      </trkpt>
      <trkpt lat="45.69799" lon="-1.16113">
        <ele>12.4</ele>
        <time>2023-10-29T05:20:50Z</time>
      </trkpt>
      <trkpt lat="45.69785" lon="-1.16098">
        <ele>12.8</ele>
        <time>2023-10-29T05:21:00Z</time>
      </trkpt>
      <trkpt lat="45.69776" lon="-1.16093">
        <ele>12.9</ele>
        <time>2023-10-29T05:21:06Z</time>
      </trkpt>
      <trkpt lat="45.69765" lon="-1.16069">
        <ele>13.3</ele>
        <time>2023-10-29T05:21:13Z</time>
      </trkpt>
      <trkpt lat="45.69748" lon="-1.16053">
        <ele>13.3</ele>
        <time>2023-10-29T05:21:21Z</time>
      </trkpt>
      <trkpt lat="45.69744" lon="-1.16047">
        <ele>13.4</ele>
        <time>2023-10-29T05:21:24Z</time>
      </trkpt>
      <trkpt lat="45.69735" lon="-1.1604">
        <ele>13.4</ele>
        <time>2023-10-29T05:21:30Z</time>
      </trkpt>
      <trkpt lat="45.6973" lon="-1.16038">
        <ele>13.3</ele>
        <time>2023-10-29T05:21:33Z</time>
      </trkpt>
      <trkpt lat="45.69714" lon="-1.16044">
        <ele>12.9</ele>
        <time>2023-10-29T05:21:43Z</time>
      </trkpt>
      <trkpt lat="45.69712" lon="-1.16044">
        <ele>12.8</ele>
        <time>2023-10-29T05:21:45Z</time>
      </trkpt>
      <trkpt lat="45.69705" lon="-1.16041">
        <ele>12.8</ele>
        <time>2023-10-29T05:21:49Z</time>
      </trkpt>
      <trkpt lat="45.69688" lon="-1.16034">
        <ele>12.2</ele>
        <time>2023-10-29T05:21:57Z</time>
      </trkpt>
      <trkpt lat="45.6967" lon="-1.16023">
        <ele>11.4</ele>
        <time>2023-10-29T05:22:06Z</time>
      </trkpt>
      <trkpt lat="45.69652" lon="-1.16018">
        <ele>10.6</ele>
        <time>2023-10-29T05:22:13Z</time>
      </trkpt>
      <trkpt lat="45.69633" lon="-1.16014">
        <ele>10.2</ele>
        <time>2023-10-29T05:22:18Z</time>
      </trkpt>
      <trkpt lat="45.69615" lon="-1.16014">
        <ele>10</ele>
        <time>2023-10-29T05:22:23Z</time>
      </trkpt>
      <trkpt lat="45.69596" lon="-1.16021">
        <ele>9.7</ele>
        <time>2023-10-29T05:22:28Z</time>
      </trkpt>
      <trkpt lat="45.69578" lon="-1.16031">
        <ele>9.3</ele>
        <time>2023-10-29T05:22:34Z</time>
      </trkpt>
      <trkpt lat="45.69571" lon="-1.16032">
        <ele>9.2</ele>
        <time>2023-10-29T05:22:37Z</time>
      </trkpt>
      <trkpt lat="45.69554" lon="-1.16042">
        <ele>9</ele>
        <time>2023-10-29T05:22:48Z</time>
      </trkpt>
      <trkpt lat="45.69553" lon="-1.16041">
        <ele>9.1</ele>
        <time>2023-10-29T05:22:50Z</time>
      </trkpt>
      <trkpt lat="45.6955" lon="-1.16036">
        <ele>9.1</ele>
        <time>2023-10-29T05:22:53Z</time>
      </trkpt>
      <trkpt lat="45.69538" lon="-1.1602">
        <ele>9.3</ele>
        <time>2023-10-29T05:23:01Z</time>
      </trkpt>
      <trkpt lat="45.6952" lon="-1.16023">
        <ele>9.1</ele>
        <time>2023-10-29T05:23:11Z</time>
      </trkpt>
      <trkpt lat="45.69499" lon="-1.16024">
        <ele>9</ele>
        <time>2023-10-29T05:23:18Z</time>
      </trkpt>
      <trkpt lat="45.69482" lon="-1.16006">
        <ele>9.1</ele>
        <time>2023-10-29T05:23:23Z</time>
      </trkpt>
      <trkpt lat="45.69468" lon="-1.15983">
        <ele>9.2</ele>
        <time>2023-10-29T05:23:28Z</time>
      </trkpt>
      <trkpt lat="45.69453" lon="-1.15959">
        <ele>9.3</ele>
        <time>2023-10-29T05:23:33Z</time>
      </trkpt>
      <trkpt lat="45.69443" lon="-1.15937">
        <ele>9.4</ele>
        <time>2023-10-29T05:23:38Z</time>
      </trkpt>
      <trkpt lat="45.69438" lon="-1.15908">
        <ele>9.5</ele>
        <time>2023-10-29T05:23:44Z</time>
      </trkpt>
      <trkpt lat="45.69428" lon="-1.15885">
        <ele>9.5</ele>
        <time>2023-10-29T05:23:51Z</time>
      </trkpt>
      <trkpt lat="45.69413" lon="-1.15864">
        <ele>9.6</ele>
        <time>2023-10-29T05:23:57Z</time>
      </trkpt>
      <trkpt lat="45.69394" lon="-1.1586">
        <ele>9.7</ele>
        <time>2023-10-29T05:24:05Z</time>
      </trkpt>
      <trkpt lat="45.69389" lon="-1.15858">
        <ele>9.7</ele>
        <time>2023-10-29T05:24:06Z</time>
      </trkpt>
      <trkpt lat="45.69386" lon="-1.15855">
        <ele>9.8</ele>
        <time>2023-10-29T05:24:08Z</time>
      </trkpt>
      <trkpt lat="45.69382" lon="-1.15846">
        <ele>9.9</ele>
        <time>2023-10-29T05:24:10Z</time>
      </trkpt>
      <trkpt lat="45.69379" lon="-1.15818">
        <ele>10.2</ele>
        <time>2023-10-29T05:24:15Z</time>
      </trkpt>
      <trkpt lat="45.69373" lon="-1.15811">
        <ele>10.6</ele>
        <time>2023-10-29T05:24:18Z</time>
      </trkpt>
      <trkpt lat="45.69356" lon="-1.15824">
        <ele>11.3</ele>
        <time>2023-10-29T05:24:23Z</time>
      </trkpt>
      <trkpt lat="45.69341" lon="-1.15837">
        <ele>12.2</ele>
        <time>2023-10-29T05:24:29Z</time>
      </trkpt>
      <trkpt lat="45.69326" lon="-1.15852">
        <ele>12.7</ele>
        <time>2023-10-29T05:24:35Z</time>
      </trkpt>
      <trkpt lat="45.69307" lon="-1.15858">
        <ele>13.8</ele>
        <time>2023-10-29T05:24:42Z</time>
      </trkpt>
      <trkpt lat="45.69287" lon="-1.15861">
        <ele>15.3</ele>
        <time>2023-10-29T05:24:48Z</time>
      </trkpt>
      <trkpt lat="45.69273" lon="-1.15879">
        <ele>17</ele>
        <time>2023-10-29T05:24:55Z</time>
      </trkpt>
      <trkpt lat="45.69262" lon="-1.159">
        <ele>18.1</ele>
        <time>2023-10-29T05:25:01Z</time>
      </trkpt>
      <trkpt lat="45.6925" lon="-1.15921">
        <ele>19.5</ele>
        <time>2023-10-29T05:25:07Z</time>
      </trkpt>
      <trkpt lat="45.69237" lon="-1.15945">
        <ele>21.3</ele>
        <time>2023-10-29T05:25:13Z</time>
      </trkpt>
      <trkpt lat="45.69225" lon="-1.15969">
        <ele>22.3</ele>
        <time>2023-10-29T05:25:19Z</time>
      </trkpt>
      <trkpt lat="45.69212" lon="-1.15993">
        <ele>22.2</ele>
        <time>2023-10-29T05:25:24Z</time>
      </trkpt>
      <trkpt lat="45.69198" lon="-1.16014">
        <ele>20.9</ele>
        <time>2023-10-29T05:25:28Z</time>
      </trkpt>
      <trkpt lat="45.69184" lon="-1.16037">
        <ele>19.6</ele>
        <time>2023-10-29T05:25:33Z</time>
      </trkpt>
      <trkpt lat="45.69172" lon="-1.16058">
        <ele>18.5</ele>
        <time>2023-10-29T05:25:37Z</time>
      </trkpt>
      <trkpt lat="45.6916" lon="-1.16081">
        <ele>17.2</ele>
        <time>2023-10-29T05:25:42Z</time>
      </trkpt>
      <trkpt lat="45.69147" lon="-1.161">
        <ele>15.3</ele>
        <time>2023-10-29T05:25:47Z</time>
      </trkpt>
      <trkpt lat="45.69131" lon="-1.16117">
        <ele>14</ele>
        <time>2023-10-29T05:25:53Z</time>
      </trkpt>
      <trkpt lat="45.69118" lon="-1.16137">
        <ele>13.1</ele>
        <time>2023-10-29T05:25:59Z</time>
      </trkpt>
      <trkpt lat="45.69104" lon="-1.1616">
        <ele>12.5</ele>
        <time>2023-10-29T05:26:05Z</time>
      </trkpt>
      <trkpt lat="45.69093" lon="-1.16183">
        <ele>11.8</ele>
        <time>2023-10-29T05:26:11Z</time>
      </trkpt>
      <trkpt lat="45.69086" lon="-1.16207">
        <ele>11.4</ele>
        <time>2023-10-29T05:26:16Z</time>
      </trkpt>
      <trkpt lat="45.69079" lon="-1.16232">
        <ele>11.1</ele>
        <time>2023-10-29T05:26:22Z</time>
      </trkpt>
      <trkpt lat="45.69069" lon="-1.16253">
        <ele>10.7</ele>
        <time>2023-10-29T05:26:29Z</time>
      </trkpt>
      <trkpt lat="45.69053" lon="-1.16265">
        <ele>10.4</ele>
        <time>2023-10-29T05:26:35Z</time>
      </trkpt>
      <trkpt lat="45.69035" lon="-1.16257">
        <ele>9.9</ele>
        <time>2023-10-29T05:26:45Z</time>
      </trkpt>
      <trkpt lat="45.69031" lon="-1.16257">
        <ele>9.9</ele>
        <time>2023-10-29T05:26:46Z</time>
      </trkpt>
      <trkpt lat="45.6902" lon="-1.16253">
        <ele>9.7</ele>
        <time>2023-10-29T05:26:55Z</time>
      </trkpt>
      <trkpt lat="45.69016" lon="-1.16254">
        <ele>9.6</ele>
        <time>2023-10-29T05:26:58Z</time>
      </trkpt>
      <trkpt lat="45.69015" lon="-1.16255">
        <ele>9.6</ele>
        <time>2023-10-29T05:27:00Z</time>
      </trkpt>
      <trkpt lat="45.69013" lon="-1.16244">
        <ele>9.3</ele>
        <time>2023-10-29T05:27:06Z</time>
      </trkpt>
      <trkpt lat="45.69022" lon="-1.1622">
        <ele>10.1</ele>
        <time>2023-10-29T05:27:15Z</time>
      </trkpt>
      <trkpt lat="45.69025" lon="-1.16215">
        <ele>10.2</ele>
        <time>2023-10-29T05:27:18Z</time>
      </trkpt>
      <trkpt lat="45.69032" lon="-1.16216">
        <ele>10.3</ele>
        <time>2023-10-29T05:27:23Z</time>
      </trkpt>
      <trkpt lat="45.6904" lon="-1.1621">
        <ele>10.5</ele>
        <time>2023-10-29T05:27:29Z</time>
      </trkpt>
      <trkpt lat="45.69049" lon="-1.16193">
        <ele>10.7</ele>
        <time>2023-10-29T05:27:39Z</time>
      </trkpt>
      <trkpt lat="45.69053" lon="-1.16192">
        <ele>10.8</ele>
        <time>2023-10-29T05:27:42Z</time>
      </trkpt>
      <trkpt lat="45.69067" lon="-1.16201">
        <ele>11</ele>
        <time>2023-10-29T05:27:59Z</time>
      </trkpt>
      <trkpt lat="45.69082" lon="-1.16221">
        <ele>11</ele>
        <time>2023-10-29T05:28:13Z</time>
      </trkpt>
      <trkpt lat="45.69099" lon="-1.16233">
        <ele>11</ele>
        <time>2023-10-29T05:28:20Z</time>
      </trkpt>
      <trkpt lat="45.69104" lon="-1.16235">
        <ele>11</ele>
        <time>2023-10-29T05:28:23Z</time>
      </trkpt>
      <trkpt lat="45.69113" lon="-1.16229">
        <ele>11.2</ele>
        <time>2023-10-29T05:28:28Z</time>
      </trkpt>
      <trkpt lat="45.6913" lon="-1.16239">
        <ele>11.1</ele>
        <time>2023-10-29T05:28:36Z</time>
      </trkpt>
      <trkpt lat="45.69139" lon="-1.16256">
        <ele>11.2</ele>
        <time>2023-10-29T05:28:45Z</time>
      </trkpt>
      <trkpt lat="45.69142" lon="-1.1627">
        <ele>11.2</ele>
        <time>2023-10-29T05:28:54Z</time>
      </trkpt>
      <trkpt lat="45.69143" lon="-1.16272">
        <ele>11.3</ele>
        <time>2023-10-29T05:28:56Z</time>
      </trkpt>
      <trkpt lat="45.69149" lon="-1.16268">
        <ele>11.4</ele>
        <time>2023-10-29T05:29:02Z</time>
      </trkpt>
      <trkpt lat="45.69155" lon="-1.1627">
        <ele>11.6</ele>
        <time>2023-10-29T05:29:08Z</time>
      </trkpt>
      <trkpt lat="45.69159" lon="-1.16275">
        <ele>11.8</ele>
        <time>2023-10-29T05:29:13Z</time>
      </trkpt>
      <trkpt lat="45.69161" lon="-1.16291">
        <ele>11.8</ele>
        <time>2023-10-29T05:29:21Z</time>
      </trkpt>
      <trkpt lat="45.69163" lon="-1.16298">
        <ele>11.9</ele>
        <time>2023-10-29T05:29:26Z</time>
      </trkpt>
      <trkpt lat="45.69165" lon="-1.16325">
        <ele>11.9</ele>
        <time>2023-10-29T05:29:38Z</time>
      </trkpt>
      <trkpt lat="45.69168" lon="-1.16342">
        <ele>12</ele>
        <time>2023-10-29T05:29:50Z</time>
      </trkpt>
      <trkpt lat="45.6917" lon="-1.16344">
        <ele>12.1</ele>
        <time>2023-10-29T05:29:52Z</time>
      </trkpt>
      <trkpt lat="45.69175" lon="-1.16356">
        <ele>12.2</ele>
        <time>2023-10-29T05:30:05Z</time>
      </trkpt>
      <trkpt lat="45.69181" lon="-1.16366">
        <ele>12.2</ele>
        <time>2023-10-29T05:30:11Z</time>
      </trkpt>
      <trkpt lat="45.69196" lon="-1.16383">
        <ele>12</ele>
        <time>2023-10-29T05:30:22Z</time>
      </trkpt>
      <trkpt lat="45.69207" lon="-1.16396">
        <ele>11.7</ele>
        <time>2023-10-29T05:30:32Z</time>
      </trkpt>
      <trkpt lat="45.69209" lon="-1.16399">
        <ele>11.7</ele>
        <time>2023-10-29T05:30:35Z</time>
      </trkpt>
      <trkpt lat="45.69209" lon="-1.164">
        <ele>11.7</ele>
        <time>2023-10-29T05:30:37Z</time>
      </trkpt>
      <trkpt lat="45.69211" lon="-1.1641">
        <ele>11.7</ele>
        <time>2023-10-29T05:30:43Z</time>
      </trkpt>
      <trkpt lat="45.69212" lon="-1.16415">
        <ele>11.6</ele>
        <time>2023-10-29T05:30:46Z</time>
      </trkpt>
      <trkpt lat="45.69226" lon="-1.16434">
        <ele>11.4</ele>
        <time>2023-10-29T05:30:56Z</time>
      </trkpt>
      <trkpt lat="45.69236" lon="-1.16458">
        <ele>11.4</ele>
        <time>2023-10-29T05:31:04Z</time>
      </trkpt>
      <trkpt lat="45.69248" lon="-1.16481">
        <ele>11.5</ele>
        <time>2023-10-29T05:31:14Z</time>
      </trkpt>
      <trkpt lat="45.69265" lon="-1.16499">
        <ele>11.7</ele>
        <time>2023-10-29T05:31:20Z</time>
      </trkpt>
      <trkpt lat="45.69281" lon="-1.16515">
        <ele>11.9</ele>
        <time>2023-10-29T05:31:26Z</time>
      </trkpt>
      <trkpt lat="45.69289" lon="-1.16531">
        <ele>12.1</ele>
        <time>2023-10-29T05:31:35Z</time>
      </trkpt>
      <trkpt lat="45.69285" lon="-1.16548">
        <ele>12.2</ele>
        <time>2023-10-29T05:31:41Z</time>
      </trkpt>
      <trkpt lat="45.69288" lon="-1.16567">
        <ele>12.3</ele>
        <time>2023-10-29T05:31:47Z</time>
      </trkpt>
      <trkpt lat="45.69304" lon="-1.1659">
        <ele>12.2</ele>
        <time>2023-10-29T05:31:52Z</time>
      </trkpt>
      <trkpt lat="45.6931" lon="-1.1662">
        <ele>11.9</ele>
        <time>2023-10-29T05:31:57Z</time>
      </trkpt>
      <trkpt lat="45.6932" lon="-1.16644">
        <ele>11.7</ele>
        <time>2023-10-29T05:32:02Z</time>
      </trkpt>
      <trkpt lat="45.69336" lon="-1.16663">
        <ele>11.3</ele>
        <time>2023-10-29T05:32:08Z</time>
      </trkpt>
      <trkpt lat="45.69352" lon="-1.16679">
        <ele>10.9</ele>
        <time>2023-10-29T05:32:13Z</time>
      </trkpt>
      <trkpt lat="45.69362" lon="-1.16702">
        <ele>10.5</ele>
        <time>2023-10-29T05:32:18Z</time>
      </trkpt>
      <trkpt lat="45.6936" lon="-1.16729">
        <ele>10.1</ele>
        <time>2023-10-29T05:32:23Z</time>
      </trkpt>
      <trkpt lat="45.69359" lon="-1.16757">
        <ele>9.7</ele>
        <time>2023-10-29T05:32:28Z</time>
      </trkpt>
      <trkpt lat="45.69369" lon="-1.16773">
        <ele>9.4</ele>
        <time>2023-10-29T05:32:36Z</time>
      </trkpt>
      <trkpt lat="45.69368" lon="-1.16805">
        <ele>8.9</ele>
        <time>2023-10-29T05:32:42Z</time>
      </trkpt>
      <trkpt lat="45.6937" lon="-1.16817">
        <ele>8.7</ele>
        <time>2023-10-29T05:32:44Z</time>
      </trkpt>
      <trkpt lat="45.69377" lon="-1.16843">
        <ele>8.3</ele>
        <time>2023-10-29T05:32:48Z</time>
      </trkpt>
      <trkpt lat="45.69385" lon="-1.16868">
        <ele>8</ele>
        <time>2023-10-29T05:32:52Z</time>
      </trkpt>
      <trkpt lat="45.69387" lon="-1.16873">
        <ele>7.9</ele>
        <time>2023-10-29T05:32:53Z</time>
      </trkpt>
      <trkpt lat="45.69398" lon="-1.16895">
        <ele>7.5</ele>
        <time>2023-10-29T05:32:57Z</time>
      </trkpt>
      <trkpt lat="45.69402" lon="-1.16899">
        <ele>7.4</ele>
        <time>2023-10-29T05:32:58Z</time>
      </trkpt>
      <trkpt lat="45.69409" lon="-1.16906">
        <ele>7.2</ele>
        <time>2023-10-29T05:33:00Z</time>
      </trkpt>
      <trkpt lat="45.69421" lon="-1.16909">
        <ele>7</ele>
        <time>2023-10-29T05:33:03Z</time>
      </trkpt>
      <trkpt lat="45.69429" lon="-1.16908">
        <ele>6.8</ele>
        <time>2023-10-29T05:33:05Z</time>
      </trkpt>
      <trkpt lat="45.69447" lon="-1.16915">
        <ele>6.6</ele>
        <time>2023-10-29T05:33:10Z</time>
      </trkpt>
      <trkpt lat="45.69451" lon="-1.16916">
        <ele>6.7</ele>
        <time>2023-10-29T05:33:11Z</time>
      </trkpt>
      <trkpt lat="45.69458" lon="-1.16922">
        <ele>6.9</ele>
        <time>2023-10-29T05:33:13Z</time>
      </trkpt>
      <trkpt lat="45.69469" lon="-1.16933">
        <ele>7.2</ele>
        <time>2023-10-29T05:33:16Z</time>
      </trkpt>
      <trkpt lat="45.69486" lon="-1.16946">
        <ele>6.5</ele>
        <time>2023-10-29T05:33:20Z</time>
      </trkpt>
      <trkpt lat="45.69502" lon="-1.16958">
        <ele>5.9</ele>
        <time>2023-10-29T05:33:24Z</time>
      </trkpt>
      <trkpt lat="45.69506" lon="-1.16968">
        <ele>5.7</ele>
        <time>2023-10-29T05:33:26Z</time>
      </trkpt>
      <trkpt lat="45.69506" lon="-1.16977">
        <ele>5.7</ele>
        <time>2023-10-29T05:33:28Z</time>
      </trkpt>
      <trkpt lat="45.69498" lon="-1.17007">
        <ele>5.8</ele>
        <time>2023-10-29T05:33:33Z</time>
      </trkpt>
      <trkpt lat="45.69497" lon="-1.17025">
        <ele>5.8</ele>
        <time>2023-10-29T05:33:36Z</time>
      </trkpt>
      <trkpt lat="45.69497" lon="-1.17036">
        <ele>5.5</ele>
        <time>2023-10-29T05:33:38Z</time>
      </trkpt>
      <trkpt lat="45.69499" lon="-1.17045">
        <ele>5.5</ele>
        <time>2023-10-29T05:33:40Z</time>
      </trkpt>
      <trkpt lat="45.69506" lon="-1.1705">
        <ele>5.1</ele>
        <time>2023-10-29T05:33:42Z</time>
      </trkpt>
      <trkpt lat="45.69525" lon="-1.17061">
        <ele>4</ele>
        <time>2023-10-29T05:33:47Z</time>
      </trkpt>
      <trkpt lat="45.69539" lon="-1.17067">
        <ele>3.5</ele>
        <time>2023-10-29T05:33:50Z</time>
      </trkpt>
      <trkpt lat="45.69558" lon="-1.17073">
        <ele>3</ele>
        <time>2023-10-29T05:33:54Z</time>
      </trkpt>
      <trkpt lat="45.69563" lon="-1.17076">
        <ele>2.9</ele>
        <time>2023-10-29T05:33:55Z</time>
      </trkpt>
      <trkpt lat="45.69569" lon="-1.17093">
        <ele>2.6</ele>
        <time>2023-10-29T05:33:58Z</time>
      </trkpt>
      <trkpt lat="45.69573" lon="-1.17121">
        <ele>2.2</ele>
        <time>2023-10-29T05:34:02Z</time>
      </trkpt>
      <trkpt lat="45.69575" lon="-1.17147">
        <ele>2</ele>
        <time>2023-10-29T05:34:06Z</time>
      </trkpt>
      <trkpt lat="45.6958" lon="-1.17176">
        <ele>1.8</ele>
        <time>2023-10-29T05:34:11Z</time>
      </trkpt>
      <trkpt lat="45.69583" lon="-1.17187">
        <ele>1.8</ele>
        <time>2023-10-29T05:34:13Z</time>
      </trkpt>
      <trkpt lat="45.6959" lon="-1.17212">
        <ele>1.9</ele>
        <time>2023-10-29T05:34:18Z</time>
      </trkpt>
      <trkpt lat="45.69598" lon="-1.17238">
        <ele>2.1</ele>
        <time>2023-10-29T05:34:23Z</time>
      </trkpt>
      <trkpt lat="45.69608" lon="-1.17261">
        <ele>2.6</ele>
        <time>2023-10-29T05:34:28Z</time>
      </trkpt>
      <trkpt lat="45.69616" lon="-1.17276">
        <ele>3.1</ele>
        <time>2023-10-29T05:34:34Z</time>
      </trkpt>
      <trkpt lat="45.69625" lon="-1.17251">
        <ele>2.6</ele>
        <time>2023-10-29T05:34:40Z</time>
      </trkpt>
      <trkpt lat="45.6964" lon="-1.17233">
        <ele>2.6</ele>
        <time>2023-10-29T05:34:47Z</time>
      </trkpt>
      <trkpt lat="45.69655" lon="-1.17217">
        <ele>2.5</ele>
        <time>2023-10-29T05:34:53Z</time>
      </trkpt>
      <trkpt lat="45.69664" lon="-1.17205">
        <ele>2.5</ele>
        <time>2023-10-29T05:34:58Z</time>
      </trkpt>
      <trkpt lat="45.69658" lon="-1.17179">
        <ele>2.5</ele>
        <time>2023-10-29T05:35:04Z</time>
      </trkpt>
      <trkpt lat="45.69645" lon="-1.17156">
        <ele>2.5</ele>
        <time>2023-10-29T05:35:10Z</time>
      </trkpt>
      <trkpt lat="45.69633" lon="-1.17135">
        <ele>2.6</ele>
        <time>2023-10-29T05:35:16Z</time>
      </trkpt>
      <trkpt lat="45.69637" lon="-1.17105">
        <ele>2.9</ele>
        <time>2023-10-29T05:35:23Z</time>
      </trkpt>
      <trkpt lat="45.69638" lon="-1.17086">
        <ele>3.2</ele>
        <time>2023-10-29T05:35:32Z</time>
      </trkpt>
      <trkpt lat="45.69636" lon="-1.17081">
        <ele>3.3</ele>
        <time>2023-10-29T05:35:44Z</time>
      </trkpt>
      <trkpt lat="45.69641" lon="-1.17082">
        <ele>3.3</ele>
        <time>2023-10-29T05:35:47Z</time>
      </trkpt>
      <trkpt lat="45.69644" lon="-1.17053">
        <ele>3.7</ele>
        <time>2023-10-29T05:35:53Z</time>
      </trkpt>
      <trkpt lat="45.69645" lon="-1.17027">
        <ele>4</ele>
        <time>2023-10-29T05:35:58Z</time>
      </trkpt>
      <trkpt lat="45.69648" lon="-1.17">
        <ele>4.4</ele>
        <time>2023-10-29T05:36:04Z</time>
      </trkpt>
      <trkpt lat="45.69664" lon="-1.16983">
        <ele>4.6</ele>
        <time>2023-10-29T05:36:11Z</time>
      </trkpt>
      <trkpt lat="45.6968" lon="-1.16963">
        <ele>4.6</ele>
        <time>2023-10-29T05:36:17Z</time>
      </trkpt>
      <trkpt lat="45.69693" lon="-1.16943">
        <ele>4.5</ele>
        <time>2023-10-29T05:36:22Z</time>
      </trkpt>
      <trkpt lat="45.69707" lon="-1.1692">
        <ele>4.5</ele>
        <time>2023-10-29T05:36:27Z</time>
      </trkpt>
      <trkpt lat="45.69719" lon="-1.16899">
        <ele>4.4</ele>
        <time>2023-10-29T05:36:32Z</time>
      </trkpt>
      <trkpt lat="45.69729" lon="-1.16883">
        <ele>4.5</ele>
        <time>2023-10-29T05:36:38Z</time>
      </trkpt>
      <trkpt lat="45.69727" lon="-1.16856">
        <ele>4.3</ele>
        <time>2023-10-29T05:36:44Z</time>
      </trkpt>
      <trkpt lat="45.69724" lon="-1.16847">
        <ele>4.3</ele>
        <time>2023-10-29T05:36:47Z</time>
      </trkpt>
      <trkpt lat="45.69706" lon="-1.1683">
        <ele>3.9</ele>
        <time>2023-10-29T05:36:55Z</time>
      </trkpt>
      <trkpt lat="45.69695" lon="-1.16809">
        <ele>3.6</ele>
        <time>2023-10-29T05:37:00Z</time>
      </trkpt>
      <trkpt lat="45.69685" lon="-1.16786">
        <ele>3.2</ele>
        <time>2023-10-29T05:37:05Z</time>
      </trkpt>
      <trkpt lat="45.69678" lon="-1.16774">
        <ele>3</ele>
        <time>2023-10-29T05:37:08Z</time>
      </trkpt>
      <trkpt lat="45.69672" lon="-1.16776">
        <ele>2.9</ele>
        <time>2023-10-29T05:37:10Z</time>
      </trkpt>
      <trkpt lat="45.6966" lon="-1.16798">
        <ele>2.8</ele>
        <time>2023-10-29T05:37:16Z</time>
      </trkpt>
      <trkpt lat="45.69646" lon="-1.16819">
        <ele>2.6</ele>
        <time>2023-10-29T05:37:22Z</time>
      </trkpt>
      <trkpt lat="45.69635" lon="-1.16842">
        <ele>2.8</ele>
        <time>2023-10-29T05:37:27Z</time>
      </trkpt>
      <trkpt lat="45.69626" lon="-1.16868">
        <ele>3.2</ele>
        <time>2023-10-29T05:37:32Z</time>
      </trkpt>
      <trkpt lat="45.69617" lon="-1.16894">
        <ele>3.8</ele>
        <time>2023-10-29T05:37:37Z</time>
      </trkpt>
      <trkpt lat="45.6961" lon="-1.16918">
        <ele>4.1</ele>
        <time>2023-10-29T05:37:42Z</time>
      </trkpt>
      <trkpt lat="45.69596" lon="-1.16941">
        <ele>4.4</ele>
        <time>2023-10-29T05:37:48Z</time>
      </trkpt>
      <trkpt lat="45.69584" lon="-1.1696">
        <ele>4.5</ele>
        <time>2023-10-29T05:37:54Z</time>
      </trkpt>
      <trkpt lat="45.69571" lon="-1.16939">
        <ele>4.7</ele>
        <time>2023-10-29T05:38:00Z</time>
      </trkpt>
      <trkpt lat="45.69565" lon="-1.1692">
        <ele>4.7</ele>
        <time>2023-10-29T05:38:03Z</time>
      </trkpt>
      <trkpt lat="45.69554" lon="-1.1692">
        <ele>4.9</ele>
        <time>2023-10-29T05:38:06Z</time>
      </trkpt>
      <trkpt lat="45.69549" lon="-1.16929">
        <ele>5</ele>
        <time>2023-10-29T05:38:08Z</time>
      </trkpt>
      <trkpt lat="45.69549" lon="-1.16954">
        <ele>5</ele>
        <time>2023-10-29T05:38:13Z</time>
      </trkpt>
      <trkpt lat="45.69563" lon="-1.16975">
        <ele>4.7</ele>
        <time>2023-10-29T05:38:19Z</time>
      </trkpt>
      <trkpt lat="45.69572" lon="-1.16999">
        <ele>4.3</ele>
        <time>2023-10-29T05:38:24Z</time>
      </trkpt>
      <trkpt lat="45.69578" lon="-1.17025">
        <ele>3.8</ele>
        <time>2023-10-29T05:38:29Z</time>
      </trkpt>
      <trkpt lat="45.69582" lon="-1.17053">
        <ele>3.2</ele>
        <time>2023-10-29T05:38:34Z</time>
      </trkpt>
      <trkpt lat="45.69586" lon="-1.17079">
        <ele>2.7</ele>
        <time>2023-10-29T05:38:39Z</time>
      </trkpt>
      <trkpt lat="45.69586" lon="-1.17092">
        <ele>2.6</ele>
        <time>2023-10-29T05:38:43Z</time>
      </trkpt>
      <trkpt lat="45.69584" lon="-1.17087">
        <ele>2.6</ele>
        <time>2023-10-29T05:38:46Z</time>
      </trkpt>
      <trkpt lat="45.69575" lon="-1.17064">
        <ele>3</ele>
        <time>2023-10-29T05:38:58Z</time>
      </trkpt>
      <trkpt lat="45.69567" lon="-1.17043">
        <ele>3.5</ele>
        <time>2023-10-29T05:39:33Z</time>
      </trkpt>
      <trkpt lat="45.69567" lon="-1.17038">
        <ele>3.6</ele>
        <time>2023-10-29T05:39:57Z</time>
      </trkpt>
    </trkseg>
  </trk>
</gpx>